Sarah Desgagnes — XJAB — position and weather

sailwx.info

Track history (hours):
 
Tides and Currents Weather Stations Pressure Air Temp Water Temp Dewpoint Dewpoint Depression Visibility Wind Speed Wind Dir Waves Ship Positions

Sarah Desgagnes

Last reported at 2016-May-25 14:33 UTC. Time now 2016-May-25 15:03 UTC.
Position N 45°24' W 073°36'.

Length 147 m; draft 6.2 m.

Type: Ship. MMSI: 316012308.

Date/timePositionNaut miles runAvg speedWind from/ knotsBaromVisibWave heightAir tempDewpointWater temp
2016-May-25 14:33N 45°24' W 073°36'4 4.4
2016-May-25 13:33N 45°25' W 073°42'1111.0
2016-May-25 12:33N 45°19' W 073°55'1 0.9
2016-May-25 11:33N 45°18' W 073°56'5 4.2
2016-May-25 10:20N 45°14' W 073°60'7 7.9
2016-May-25 09:30N 45°14' W 074°09'11211.1
2016-May-24 23:22N 44°10' W 076°19'2 2.7
2016-May-24 22:34N 44°08' W 076°21'1 0.8
2016-May-24 21:34N 44°09' W 076°20'1413.5
2016-May-24 20:33N 43°57' W 076°31'5 4.9
2016-May-24 19:34N 43°54' W 076°35'11914.2
2016-May-24 11:12N 43°17' W 079°11'4 6.2
2016-May-24 10:33N 43°13' W 079°13'2 1.1
2016-May-24 09:12N 43°12' W 079°12'  
2016-May-20 14:28N 43°08' W 079°12'4 1.2
2016-May-20 11:27N 43°12' W 079°12'1 1.4
2016-May-20 10:31N 43°13' W 079°13'1 1.5
2016-May-20 09:34N 43°15' W 079°13'13312.0
2016-May-19 22:30N 44°06' W 076°24'1312.7
2016-May-19 21:26N 44°14' W 076°08'80 7.2
2016-May-19 10:14N 45°02' W 074°37'7 7.2
2016-May-19 09:17N 45°06' W 074°29'7 9.5
2016-May-19 08:32N 45°10' W 074°21'1010.1
2016-May-19 07:33N 45°14' W 074°08'7 7.3
2016-May-19 06:33N 45°15' W 073°58'4 3.7
2016-May-19 05:33N 45°19' W 073°55'1 0.8
2016-May-19 04:33N 45°19' W 073°55'8 7.7
2016-May-19 03:34N 45°24' W 073°47'7 6.9
2016-May-19 02:33N 45°24' W 073°37'1 0.6
2016-May-19 01:33N 45°24' W 073°36'1 1.4
2016-May-19 00:33N 45°24' W 073°34'7 2.3
2016-May-18 21:26N 45°31' W 073°32'7 7.1
2016-May-18 20:24N 45°39' W 073°29'7 8.9
2016-May-18 19:33N 45°45' W 073°24'1010.4
2016-May-18 18:33N 45°53' W 073°15'10 9.7
2016-May-18 17:33N 46°02' W 073°10'10 9.8
2016-May-18 16:33N 46°07' W 072°58'1211.6
2016-May-18 15:32N 46°15' W 072°45'  
Track history (hours):
 
Tides and Currents Weather Stations Pressure Air Temp Water Temp Dewpoint Dewpoint Depression Visibility Wind Speed Wind Dir Waves Ship Positions

Sarah Desgagnes

Last reported at 2016-May-25 14:33 UTC. Time now 2016-May-25 15:03 UTC.
Position N 45°24' W 073°36'.

Length 147 m; draft 6.2 m.

Type: Ship. MMSI: 316012308.

Date/timePositionNaut miles runAvg speedWind from/ knotsBaromVisibWave heightAir tempDewpointWater temp
2016-May-25 14:33N 45°24' W 073°36'4 4.4
2016-May-25 13:33N 45°25' W 073°42'1111.0
2016-May-25 12:33N 45°19' W 073°55'1 0.9
2016-May-25 11:33N 45°18' W 073°56'5 4.2
2016-May-25 10:20N 45°14' W 073°60'7 7.9
2016-May-25 09:30N 45°14' W 074°09'11211.1
2016-May-24 23:22N 44°10' W 076°19'2 2.7
2016-May-24 22:34N 44°08' W 076°21'1 0.8
2016-May-24 21:34N 44°09' W 076°20'1413.5
2016-May-24 20:33N 43°57' W 076°31'5 4.9
2016-May-24 19:34N 43°54' W 076°35'11914.2
2016-May-24 11:12N 43°17' W 079°11'4 6.2
2016-May-24 10:33N 43°13' W 079°13'2 1.1
2016-May-24 09:12N 43°12' W 079°12'  
2016-May-20 14:28N 43°08' W 079°12'4 1.2
2016-May-20 11:27N 43°12' W 079°12'1 1.4
2016-May-20 10:31N 43°13' W 079°13'1 1.5
2016-May-20 09:34N 43°15' W 079°13'13312.0
2016-May-19 22:30N 44°06' W 076°24'1312.7
2016-May-19 21:26N 44°14' W 076°08'80 7.2
2016-May-19 10:14N 45°02' W 074°37'7 7.2
2016-May-19 09:17N 45°06' W 074°29'7 9.5
2016-May-19 08:32N 45°10' W 074°21'1010.1
2016-May-19 07:33N 45°14' W 074°08'7 7.3
2016-May-19 06:33N 45°15' W 073°58'4 3.7
2016-May-19 05:33N 45°19' W 073°55'1 0.8
2016-May-19 04:33N 45°19' W 073°55'8 7.7
2016-May-19 03:34N 45°24' W 073°47'7 6.9
2016-May-19 02:33N 45°24' W 073°37'1 0.6
2016-May-19 01:33N 45°24' W 073°36'1 1.4
2016-May-19 00:33N 45°24' W 073°34'7 2.3
2016-May-18 21:26N 45°31' W 073°32'7 7.1
2016-May-18 20:24N 45°39' W 073°29'7 8.9
2016-May-18 19:33N 45°45' W 073°24'1010.4
2016-May-18 18:33N 45°53' W 073°15'10 9.7
2016-May-18 17:33N 46°02' W 073°10'10 9.8
2016-May-18 16:33N 46°07' W 072°58'1211.6
2016-May-18 15:32N 46°15' W 072°45'  

Dump ship's entire track history